Terminal Aerodrome Forecast
Issued by NWS Grand Forks, ND

Home | Current Version | Previous Version | Graphics & Text | Print | Product List | Glossary On
Versions: 1 2 3 4 5 6 7 8 9 10 11 12 13 14 15
000
FTUS43 KFGF 252333
TAFGFK
TAF
KGFK 252333Z 2600/2624 29010KT P6SM FEW050 SCT250
     FM260300 30007KT P6SM SKC
     FM261500 33012G20KT P6SM SCT040=

USA.gov is the U.S. government's official web portal to all federal, state and local government web resources and services.